Aeroporto :
LOGIN :

Iscrizione | Disclaimer

   EN    FR    IT 

 










Sommario :    VFR   VFR Marginale   IFR   IFR Intensivo   IFR Molto Intensivo
Visibilità : 
Base nubi : 
>= 8 km
>= 3000ft
5 / 8 km
1000 / 3000 ft
1500m / 5 km
500 / 1000 ft
800 / 1500m
200 / 500 ft
< 800m
< 200 ft
Simboli :   Temporali  Nebbia  Neve Forte  Precipitazioni Forti  Vento > 20 kt
SIGMETs :   Varie  Temporali  Ghiacco  Turbolenza  Onda orograficha  Ceneri Vulcaniche






- Altitudine del aeroporto : 468 ft
- Codice IATA : BQT


UMBB - Brest

ULTIMO METAR :
  • 270536Z 24002MPS 0900 R29/1300 FZFG VV003 M02/M03 Q1015 R29/CLRD// NOSIG RMK QBB090

METARs OBSOLETI :
  • 270530Z 26002MPS 1100 R29/P2000 BR OVC002 M02/M02 Q1015 NOSIG RMK QBB070
  • 270500Z 24002MPS 1100 R29/P2000 BR OVC002 M02/M02 Q1015 NOSIG RMK QBB070
  • 270435Z 24002MPS 1200 R29/P2000 BR OVC002 M02/M03 Q1015 NOSIG RMK QBB080
  • 270400Z 23002MPS 1800 BR BKN005 M02/M03 Q1015 NOSIG RMK QBB170
  • 270300Z 20001MPS 2400 BR NSC M02/M03 Q1016 NOSIG

TAF TAF UMBB
Valido dal 27 a 06 ore il 27 a 15 ore UTC


270500Z 2706/2715 24005MPS 2100 BR BKN004
TEMPO 2706/2709 0800 FZDZ FZFG VV002
TEMPO 2709/2715 3000 -SHRASN BR BKN006 SCT015CB



MetMap, La meteo Aeronautica in un colpo d'occhio ! - Copyright ORBIFLY Dicembre 2007 - Disclaimer

ORBIFLY MET'MAP TEAM :

Programmazione e sviluppo : Alexandra Zaïnal
Concezione : Baudouin d'Aumeries
Aiuto per la programmazione : Marc-Olivier Méhu
Supporto tecnico e logistico : Manuel Goepfert
Aiuto per la traduzione : Arnaldo La Scala

Contatto : metmap@orbifly.com




FONTI E CREDITI :

   NOAA